Time,TemperatureF,DewpointF,PressureIn,WindDirection,WindDirectionDegrees,WindSpeedMPH,WindSpeedGustMPH,Humidity,HourlyPrecipIn,Conditions,Clouds,dailyrainin,SoftwareType,DateUTC
2013-05-05 00:02:00,60.3,53.8,29.87,South,180,2.0,8.0,79,0.00,,,0.00,meteohub,2013-05-05 07:02:00,
2013-05-05 00:07:00,60.3,53.8,29.87,SW,225,2.0,8.0,79,0.00,,,0.00,meteohub,2013-05-05 07:07:00,
2013-05-05 00:12:00,60.1,53.6,29.87,West,270,4.0,8.0,79,0.00,,,0.00,meteohub,2013-05-05 07:12:00,
2013-05-05 00:17:00,60.1,53.6,29.87,SE,135,6.0,8.0,79,0.00,,,0.00,meteohub,2013-05-05 07:17:00,
2013-05-05 00:22:00,60.1,53.6,29.87,SW,225,2.0,8.0,79,0.00,,,0.00,meteohub,2013-05-05 07:22:00,
2013-05-05 00:27:00,60.1,54.0,29.87,West,270,3.0,8.0,80,0.00,,,0.00,meteohub,2013-05-05 07:27:00,
2013-05-05 00:32:00,60.1,54.0,29.87,South,180,4.0,8.0,80,0.00,,,0.00,meteohub,2013-05-05 07:32:00,
2013-05-05 00:37:00,60.1,54.0,29.88,WNW,293,2.0,7.0,80,0.00,,,0.00,meteohub,2013-05-05 07:37:00,
2013-05-05 00:42:00,59.9,53.8,29.87,West,270,6.0,7.0,80,0.00,,,0.00,meteohub,2013-05-05 07:42:00,
2013-05-05 00:47:00,59.9,53.8,29.87,South,180,4.0,8.0,80,0.00,,,0.00,meteohub,2013-05-05 07:47:00,
2013-05-05 00:52:00,59.9,53.8,29.87,South,180,5.0,8.0,80,0.00,,,0.00,meteohub,2013-05-05 07:52:00,
2013-05-05 00:57:00,59.9,53.8,29.87,South,180,3.0,8.0,80,0.00,,,0.00,meteohub,2013-05-05 07:57:00,
2013-05-05 01:02:00,59.9,53.8,29.87,South,180,7.0,7.0,80,0.00,,,0.00,meteohub,2013-05-05 08:02:00,
2013-05-05 01:07:00,59.9,53.8,29.88,South,180,3.0,8.0,80,0.00,,,0.00,meteohub,2013-05-05 08:07:00,
2013-05-05 01:12:00,60.1,54.0,29.87,South,180,2.0,8.0,80,0.00,,,0.00,meteohub,2013-05-05 08:12:00,
2013-05-05 01:17:00,60.1,54.0,29.87,South,180,2.0,8.0,80,0.00,,,0.00,meteohub,2013-05-05 08:17:00,
2013-05-05 01:22:00,59.9,53.8,29.87,West,270,2.0,6.0,80,0.00,,,0.00,meteohub,2013-05-05 08:22:00,
2013-05-05 01:27:00,59.9,53.8,29.88,South,180,6.0,6.0,80,0.00,,,0.00,meteohub,2013-05-05 08:27:00,
2013-05-05 01:32:00,59.9,53.8,29.88,South,180,4.0,7.0,80,0.00,,,0.00,meteohub,2013-05-05 08:32:00,
2013-05-05 01:37:00,59.9,54.1,29.88,SW,225,3.0,7.0,81,0.00,,,0.00,meteohub,2013-05-05 08:37:00,
2013-05-05 01:42:00,59.9,54.1,29.87,South,180,2.0,7.0,81,0.00,,,0.00,meteohub,2013-05-05 08:42:00,
2013-05-05 01:47:00,59.9,54.1,29.88,West,270,3.0,5.0,81,0.00,,,0.00,meteohub,2013-05-05 08:47:00,
2013-05-05 01:52:00,59.9,54.1,29.87,SW,225,3.0,4.0,81,0.00,,,0.00,meteohub,2013-05-05 08:52:00,
2013-05-05 01:57:00,59.9,54.1,29.87,South,180,2.0,4.0,81,0.00,,,0.00,meteohub,2013-05-05 08:57:00,
2013-05-05 02:02:00,59.9,54.1,29.86,SSW,203,2.0,5.0,81,0.00,,,0.00,meteohub,2013-05-05 09:02:00,
2013-05-05 02:07:00,60.1,54.5,29.87,West,270,4.0,5.0,82,0.00,,,0.00,meteohub,2013-05-05 09:07:00,
2013-05-05 02:12:00,60.1,54.5,29.87,SW,225,4.0,5.0,82,0.00,,,0.00,meteohub,2013-05-05 09:12:00,
2013-05-05 02:17:00,60.1,54.5,29.86,West,270,4.0,5.0,82,0.00,,,0.00,meteohub,2013-05-05 09:17:00,
2013-05-05 02:22:00,60.1,54.5,29.87,West,270,2.0,5.0,82,0.00,,,0.00,meteohub,2013-05-05 09:22:00,
2013-05-05 02:27:00,60.1,54.5,29.86,West,270,2.0,5.0,82,0.00,,,0.00,meteohub,2013-05-05 09:27:00,
2013-05-05 02:32:00,60.3,54.7,29.87,WNW,293,5.0,5.0,82,0.00,,,0.00,meteohub,2013-05-05 09:32:00,
2013-05-05 02:37:00,60.3,54.7,29.86,SW,225,3.0,6.0,82,0.00,,,0.00,meteohub,2013-05-05 09:37:00,
2013-05-05 02:42:00,60.3,54.7,29.86,West,270,3.0,8.0,82,0.00,,,0.00,meteohub,2013-05-05 09:42:00,
2013-05-05 02:47:00,60.3,54.7,29.86,SSW,203,7.0,8.0,82,0.00,,,0.00,meteohub,2013-05-05 09:47:00,
2013-05-05 02:52:00,60.4,54.9,29.86,South,180,4.0,8.0,82,0.00,,,0.00,meteohub,2013-05-05 09:52:00,
2013-05-05 02:57:00,60.3,54.7,29.86,SE,135,3.0,7.0,82,0.00,,,0.00,meteohub,2013-05-05 09:57:00,
2013-05-05 03:02:00,60.3,54.7,29.86,South,180,4.0,7.0,82,0.00,,,0.00,meteohub,2013-05-05 10:02:00,
2013-05-05 03:07:00,60.3,54.7,29.86,West,270,2.0,7.0,82,0.00,,,0.00,meteohub,2013-05-05 10:07:00,
2013-05-05 03:12:00,60.3,54.7,29.86,SW,225,3.0,5.0,82,0.00,,,0.00,meteohub,2013-05-05 10:12:00,
2013-05-05 03:17:00,60.3,54.7,29.86,SW,225,4.0,5.0,82,0.00,,,0.00,meteohub,2013-05-05 10:17:00,
2013-05-05 03:22:00,60.3,54.7,29.86,West,270,4.0,6.0,82,0.00,,,0.00,meteohub,2013-05-05 10:22:00,
2013-05-05 03:27:00,60.3,54.7,29.86,West,270,7.0,7.0,82,0.00,,,0.00,meteohub,2013-05-05 10:27:00,
2013-05-05 03:32:00,60.3,54.7,29.86,South,180,4.0,7.0,82,0.00,,,0.00,meteohub,2013-05-05 10:32:00,
2013-05-05 03:37:00,60.4,55.2,29.86,WSW,248,4.0,7.0,83,0.00,,,0.00,meteohub,2013-05-05 10:37:00,
2013-05-05 03:42:00,60.4,55.2,29.86,SE,135,4.0,7.0,83,0.00,,,0.00,meteohub,2013-05-05 10:42:00,
2013-05-05 03:47:00,60.4,55.2,29.86,SW,225,5.0,6.0,83,0.00,,,0.00,meteohub,2013-05-05 10:47:00,
2013-05-05 03:52:00,60.4,54.9,29.86,NW,315,5.0,7.0,82,0.00,,,0.00,meteohub,2013-05-05 10:52:00,
2013-05-05 03:57:00,60.4,55.2,29.86,West,270,4.0,7.0,83,0.00,,,0.00,meteohub,2013-05-05 10:57:00,
2013-05-05 04:02:00,60.4,55.2,29.86,South,180,5.0,8.0,83,0.00,,,0.00,meteohub,2013-05-05 11:02:00,
2013-05-05 04:07:00,60.4,55.2,29.85,SW,225,2.0,8.0,83,0.00,,,0.00,meteohub,2013-05-05 11:07:00,
2013-05-05 04:12:00,60.4,55.2,29.85,SW,225,2.0,8.0,83,0.00,,,0.00,meteohub,2013-05-05 11:12:00,
2013-05-05 04:17:00,60.4,55.2,29.85,South,180,2.0,6.0,83,0.00,,,0.00,meteohub,2013-05-05 11:17:00,
2013-05-05 04:22:00,60.4,55.2,29.85,South,180,2.0,6.0,83,0.00,,,0.00,meteohub,2013-05-05 11:22:00,
2013-05-05 04:27:00,60.4,55.2,29.85,SSE,158,6.0,6.0,83,0.00,,,0.00,meteohub,2013-05-05 11:27:00,
2013-05-05 04:32:00,60.4,55.2,29.85,South,180,4.0,6.0,83,0.00,,,0.00,meteohub,2013-05-05 11:32:00,
2013-05-05 04:37:00,60.3,55.0,29.85,SSW,203,4.0,6.0,83,0.00,,,0.00,meteohub,2013-05-05 11:37:00,
2013-05-05 04:42:00,60.3,55.4,29.84,South,180,2.0,8.0,84,0.00,,,0.00,meteohub,2013-05-05 11:42:00,
2013-05-05 04:47:00,60.3,55.4,29.84,South,180,4.0,8.0,84,0.00,,,0.00,meteohub,2013-05-05 11:47:00,
2013-05-05 04:52:00,60.3,55.4,29.84,South,180,5.0,8.0,84,0.00,,,0.00,meteohub,2013-05-05 11:52:00,
2013-05-05 04:57:00,60.3,55.4,29.85,SW,225,6.0,6.0,84,0.00,,,0.00,meteohub,2013-05-05 11:57:00,
2013-05-05 05:02:00,60.4,55.6,29.85,West,270,3.0,6.0,84,0.00,,,0.00,meteohub,2013-05-05 12:02:00,
2013-05-05 05:07:00,60.4,55.6,29.85,SW,225,4.0,6.0,84,0.00,,,0.00,meteohub,2013-05-05 12:07:00,
2013-05-05 05:12:00,60.4,55.6,29.86,SW,225,4.0,6.0,84,0.00,,,0.00,meteohub,2013-05-05 12:12:00,
2013-05-05 05:17:00,60.4,55.6,29.85,SW,225,3.0,7.0,84,0.00,,,0.00,meteohub,2013-05-05 12:17:00,
2013-05-05 05:22:00,60.4,55.6,29.85,SW,225,3.0,7.0,84,0.00,,,0.00,meteohub,2013-05-05 12:22:00,
2013-05-05 05:27:00,60.4,55.6,29.86,West,270,5.0,5.0,84,0.00,,,0.00,meteohub,2013-05-05 12:27:00,
2013-05-05 05:32:00,60.4,55.6,29.86,WSW,248,3.0,7.0,84,0.00,,,0.00,meteohub,2013-05-05 12:32:00,
2013-05-05 05:37:00,60.4,55.9,29.86,West,270,4.0,7.0,85,0.00,,,0.00,meteohub,2013-05-05 12:37:00,
2013-05-05 05:42:00,60.4,55.9,29.86,West,270,2.0,7.0,85,0.00,,,0.00,meteohub,2013-05-05 12:42:00,
2013-05-05 05:47:00,60.4,55.9,29.86,WSW,248,2.0,5.0,85,0.00,,,0.00,meteohub,2013-05-05 12:47:00,
2013-05-05 05:52:00,60.4,55.9,29.86,West,270,2.0,5.0,85,0.00,,,0.00,meteohub,2013-05-05 12:52:00,
2013-05-05 05:57:00,60.4,55.9,29.86,West,270,6.0,6.0,85,0.00,,,0.00,meteohub,2013-05-05 12:57:00,
2013-05-05 06:02:00,60.4,55.9,29.86,West,270,5.0,6.0,85,0.00,,,0.00,meteohub,2013-05-05 13:02:00,
2013-05-05 06:07:00,60.6,56.1,29.87,West,270,4.0,6.0,85,0.00,,,0.00,meteohub,2013-05-05 13:07:00,
2013-05-05 06:12:00,60.6,56.1,29.88,West,270,3.0,7.0,85,0.00,,,0.00,meteohub,2013-05-05 13:12:00,
2013-05-05 06:17:00,60.4,55.9,29.87,West,270,8.0,8.0,85,0.00,,,0.00,meteohub,2013-05-05 13:17:00,
2013-05-05 06:22:00,60.4,55.9,29.88,West,270,5.0,8.0,85,0.00,,,0.00,meteohub,2013-05-05 13:22:00,
2013-05-05 06:27:00,60.4,55.9,29.88,West,270,6.0,8.0,85,0.00,,,0.00,meteohub,2013-05-05 13:27:00,
2013-05-05 06:32:00,60.4,55.9,29.88,SW,225,6.0,8.0,85,0.00,,,0.00,meteohub,2013-05-05 13:32:00,
2013-05-05 06:37:00,60.4,55.9,29.88,West,270,6.0,8.0,85,0.00,,,0.00,meteohub,2013-05-05 13:37:00,
2013-05-05 06:42:00,60.6,56.1,29.88,West,270,3.0,8.0,85,0.00,,,0.00,meteohub,2013-05-05 13:42:00,
2013-05-05 06:47:00,60.6,55.8,29.89,West,270,4.0,8.0,84,0.00,,,0.00,meteohub,2013-05-05 13:47:00,
2013-05-05 06:52:00,60.8,55.9,29.89,West,270,4.0,8.0,84,0.00,,,0.00,meteohub,2013-05-05 13:52:00,
2013-05-05 06:57:00,61.0,55.8,29.88,SW,225,6.0,8.0,83,0.00,,,0.00,meteohub,2013-05-05 13:57:00,
2013-05-05 07:02:00,61.0,55.8,29.88,West,270,4.0,8.0,83,0.00,,,0.00,meteohub,2013-05-05 14:02:00,
2013-05-05 07:07:00,61.2,55.6,29.89,West,270,8.0,8.0,82,0.00,,,0.00,meteohub,2013-05-05 14:07:00,
2013-05-05 07:12:00,61.2,55.6,29.89,West,270,8.0,8.0,82,0.00,,,0.00,meteohub,2013-05-05 14:12:00,
2013-05-05 07:17:00,61.3,55.4,29.89,West,270,5.0,9.0,81,0.00,,,0.00,meteohub,2013-05-05 14:17:00,
2013-05-05 07:22:00,61.3,55.4,29.89,West,270,4.0,9.0,81,0.00,,,0.00,meteohub,2013-05-05 14:22:00,
2013-05-05 07:27:00,61.3,55.0,29.89,NW,315,6.0,9.0,80,0.00,,,0.00,meteohub,2013-05-05 14:27:00,
2013-05-05 07:32:00,61.3,55.8,29.90,NW,315,8.0,11.0,82,0.00,,,0.00,meteohub,2013-05-05 14:32:00,
2013-05-05 07:37:00,61.3,55.8,29.90,West,270,4.0,11.0,82,0.00,,,0.00,meteohub,2013-05-05 14:37:00,
2013-05-05 07:42:00,61.3,55.8,29.90,NW,315,5.0,11.0,82,0.00,,,0.00,meteohub,2013-05-05 14:42:00,
2013-05-05 07:47:00,61.3,55.4,29.90,West,270,8.0,11.0,81,0.00,,,0.00,meteohub,2013-05-05 14:47:00,
2013-05-05 07:52:00,61.5,55.6,29.90,SW,225,11.0,11.0,81,0.00,,,0.00,meteohub,2013-05-05 14:52:00,
2013-05-05 07:57:00,61.3,55.0,29.91,West,270,10.0,11.0,80,0.00,,,0.00,meteohub,2013-05-05 14:57:00,
2013-05-05 08:02:00,61.5,55.2,29.91,West,270,6.0,11.0,80,0.00,,,0.00,meteohub,2013-05-05 15:02:00,
2013-05-05 08:07:00,61.7,55.0,29.91,WSW,248,8.0,11.0,79,0.00,,,0.00,meteohub,2013-05-05 15:07:00,
2013-05-05 08:12:00,61.9,55.2,29.91,West,270,10.0,10.0,79,0.00,,,0.00,meteohub,2013-05-05 15:12:00,
2013-05-05 08:17:00,62.4,55.4,29.91,West,270,7.0,8.0,78,0.00,,,0.00,meteohub,2013-05-05 15:17:00,
2013-05-05 08:22:00,62.4,55.0,29.91,NW,315,8.0,10.0,77,0.00,,,0.00,meteohub,2013-05-05 15:22:00,
2013-05-05 08:27:00,62.2,54.9,29.91,West,270,7.0,11.0,77,0.00,,,0.00,meteohub,2013-05-05 15:27:00,
2013-05-05 08:32:00,63.5,55.4,29.91,West,270,5.0,11.0,75,0.00,,,0.00,meteohub,2013-05-05 15:32:00,
2013-05-05 08:37:00,63.9,55.0,29.92,West,270,8.0,11.0,73,0.00,,,0.00,meteohub,2013-05-05 15:37:00,
2013-05-05 08:42:00,63.9,55.0,29.92,SW,225,5.0,10.0,73,0.00,,,0.00,meteohub,2013-05-05 15:42:00,
2013-05-05 08:48:00,63.1,54.7,29.92,West,270,7.0,10.0,74,0.00,,,0.00,meteohub,2013-05-05 15:48:00,
2013-05-05 08:53:00,62.8,54.7,29.92,West,270,6.0,10.0,75,0.00,,,0.00,meteohub,2013-05-05 15:53:00,
2013-05-05 08:57:00,62.8,55.0,29.92,West,270,5.0,9.0,76,0.00,,,0.00,meteohub,2013-05-05 15:57:00,
2013-05-05 09:02:00,63.0,55.2,29.93,West,270,7.0,9.0,76,0.00,,,0.00,meteohub,2013-05-05 16:02:00,
2013-05-05 09:07:00,63.0,54.9,29.93,West,270,6.0,9.0,75,0.00,,,0.00,meteohub,2013-05-05 16:07:00,
2013-05-05 09:12:00,62.8,55.0,29.93,West,270,7.0,9.0,76,0.00,,,0.00,meteohub,2013-05-05 16:12:00,
2013-05-05 09:17:00,62.8,55.0,29.93,NW,315,7.0,8.0,76,0.00,,,0.00,meteohub,2013-05-05 16:17:00,
2013-05-05 09:22:00,63.1,54.7,29.93,NW,315,6.0,9.0,74,0.00,,,0.00,meteohub,2013-05-05 16:22:00,
2013-05-05 09:28:00,63.9,54.3,29.93,SW,225,6.0,9.0,71,0.00,,,0.00,meteohub,2013-05-05 16:28:00,
2013-05-05 09:33:00,63.9,54.3,29.94,West,270,6.0,8.0,71,0.00,,,0.00,meteohub,2013-05-05 16:33:00,
2013-05-05 09:38:00,64.8,54.7,29.93,West,270,3.0,9.0,70,0.00,,,0.00,meteohub,2013-05-05 16:38:00,
2013-05-05 09:43:00,65.5,53.8,29.93,West,270,8.0,10.0,66,0.00,,,0.00,meteohub,2013-05-05 16:43:00,
2013-05-05 09:48:00,66.2,54.5,29.94,West,270,9.0,10.0,66,0.00,,,0.00,meteohub,2013-05-05 16:48:00,
2013-05-05 09:53:00,66.0,53.4,29.94,SW,225,4.0,10.0,64,0.00,,,0.00,meteohub,2013-05-05 16:53:00,
2013-05-05 09:58:00,64.8,53.6,29.94,SSW,203,12.0,14.0,67,0.00,,,0.00,meteohub,2013-05-05 16:58:00,
2013-05-05 10:03:00,64.2,53.4,29.94,SSW,203,5.0,15.0,68,0.00,,,0.00,meteohub,2013-05-05 17:03:00,
2013-05-05 10:08:00,63.9,53.1,29.94,West,270,11.0,15.0,68,0.00,,,0.00,meteohub,2013-05-05 17:08:00,
2013-05-05 10:13:00,63.9,53.4,29.94,West,270,8.0,15.0,69,0.00,,,0.00,meteohub,2013-05-05 17:13:00,
2013-05-05 10:18:00,63.5,52.7,29.95,West,270,8.0,11.0,68,0.00,,,0.00,meteohub,2013-05-05 17:18:00,
2013-05-05 10:23:00,63.3,53.1,29.95,West,270,8.0,11.0,69,0.00,,,0.00,meteohub,2013-05-05 17:23:00,
2013-05-05 10:28:00,63.1,52.3,29.95,West,270,8.0,11.0,68,0.00,,,0.00,meteohub,2013-05-05 17:28:00,
2013-05-05 10:33:00,63.0,52.7,29.95,West,270,7.0,11.0,69,0.00,,,0.00,meteohub,2013-05-05 17:33:00,
2013-05-05 10:38:00,62.6,52.7,29.96,WNW,293,5.0,11.0,70,0.00,,,0.00,meteohub,2013-05-05 17:38:00,
2013-05-05 10:43:00,62.8,52.9,29.96,SSW,203,7.0,11.0,70,0.00,,,0.00,meteohub,2013-05-05 17:43:00,
2013-05-05 10:48:00,63.0,53.1,29.96,South,180,8.0,11.0,70,0.00,,,0.00,meteohub,2013-05-05 17:48:00,
2013-05-05 10:53:00,63.1,52.0,29.96,South,180,10.0,10.0,67,0.00,,,0.00,meteohub,2013-05-05 17:53:00,
2013-05-05 10:58:00,63.5,52.3,29.96,West,270,12.0,14.0,67,0.00,,,0.00,meteohub,2013-05-05 17:58:00,
2013-05-05 11:03:00,63.9,52.3,29.96,West,270,14.0,14.0,66,0.00,,,0.00,meteohub,2013-05-05 18:03:00,
2013-05-05 11:08:00,64.6,52.9,29.96,West,270,11.0,14.0,66,0.00,,,0.00,meteohub,2013-05-05 18:08:00,
2013-05-05 11:13:00,65.5,53.4,29.96,West,270,4.0,14.0,65,0.00,,,0.00,meteohub,2013-05-05 18:13:00,
2013-05-05 11:18:00,65.7,53.2,29.96,South,180,5.0,14.0,64,0.00,,,0.00,meteohub,2013-05-05 18:18:00,
2013-05-05 11:23:00,65.1,52.7,29.96,NW,315,13.0,13.0,64,0.00,,,0.00,meteohub,2013-05-05 18:23:00,
2013-05-05 11:28:00,64.2,52.2,29.96,WNW,293,10.0,13.0,65,0.00,,,0.00,meteohub,2013-05-05 18:28:00,
2013-05-05 11:33:00,64.6,52.5,29.96,NW,315,10.0,13.0,65,0.00,,,0.00,meteohub,2013-05-05 18:33:00,
2013-05-05 11:38:00,64.6,52.2,29.96,NW,315,11.0,13.0,64,0.00,,,0.00,meteohub,2013-05-05 18:38:00,
2013-05-05 11:43:00,64.4,52.0,29.96,NW,315,11.0,12.0,64,0.00,,,0.00,meteohub,2013-05-05 18:43:00,
2013-05-05 11:48:00,65.5,52.5,29.96,West,270,9.0,12.0,63,0.00,,,0.00,meteohub,2013-05-05 18:48:00,
2013-05-05 11:53:00,66.7,52.9,29.96,West,270,8.0,12.0,61,0.00,,,0.00,meteohub,2013-05-05 18:53:00,
2013-05-05 11:58:00,67.1,52.3,29.96,WNW,293,6.0,11.0,59,0.00,,,0.00,meteohub,2013-05-05 18:58:00,
2013-05-05 12:03:00,66.9,52.2,29.96,NW,315,9.0,14.0,59,0.00,,,0.00,meteohub,2013-05-05 19:03:00,
2013-05-05 12:08:00,66.9,52.5,29.96,West,270,8.0,14.0,60,0.00,,,0.00,meteohub,2013-05-05 19:08:00,
2013-05-05 12:13:00,68.4,53.1,29.95,WNW,293,8.0,14.0,58,0.00,,,0.00,meteohub,2013-05-05 19:13:00,
2013-05-05 12:18:00,69.3,52.9,29.95,West,270,8.0,14.0,56,0.00,,,0.00,meteohub,2013-05-05 19:18:00,
2013-05-05 12:23:00,69.1,51.8,29.95,NW,315,11.0,13.0,54,0.00,,,0.00,meteohub,2013-05-05 19:23:00,
2013-05-05 12:28:00,68.7,52.9,29.95,NW,315,9.0,15.0,57,0.00,,,0.00,meteohub,2013-05-05 19:28:00,
2013-05-05 12:33:00,68.5,53.2,29.95,NW,315,12.0,15.0,58,0.00,,,0.00,meteohub,2013-05-05 19:33:00,
2013-05-05 12:38:00,68.7,52.3,29.95,West,270,10.0,15.0,56,0.00,,,0.00,meteohub,2013-05-05 19:38:00,
2013-05-05 12:43:00,69.3,51.4,29.95,NW,315,15.0,15.0,53,0.00,,,0.00,meteohub,2013-05-05 19:43:00,
2013-05-05 12:48:00,69.4,52.5,29.95,WNW,293,10.0,15.0,55,0.00,,,0.00,meteohub,2013-05-05 19:48:00,
2013-05-05 12:53:00,69.6,52.2,29.95,NW,315,8.0,15.0,54,0.00,,,0.00,meteohub,2013-05-05 19:53:00,
2013-05-05 12:58:00,69.4,52.5,29.95,NW,315,11.0,15.0,55,0.00,,,0.00,meteohub,2013-05-05 19:58:00,
2013-05-05 13:03:00,69.4,51.6,29.95,NW,315,9.0,17.0,53,0.00,,,0.00,meteohub,2013-05-05 20:03:00,
2013-05-05 13:08:00,68.2,52.3,29.95,West,270,8.0,17.0,57,0.00,,,0.00,meteohub,2013-05-05 20:08:00,
2013-05-05 13:13:00,68.4,52.5,29.94,West,270,8.0,17.0,57,0.00,,,0.00,meteohub,2013-05-05 20:13:00,
2013-05-05 13:18:00,67.8,52.0,29.94,NW,315,11.0,12.0,57,0.00,,,0.00,meteohub,2013-05-05 20:18:00,
2013-05-05 13:23:00,68.0,52.2,29.94,SE,135,5.0,11.0,57,0.00,,,0.00,meteohub,2013-05-05 20:23:00,
2013-05-05 13:28:00,68.0,51.8,29.94,NW,315,5.0,11.0,56,0.00,,,0.00,meteohub,2013-05-05 20:28:00,
2013-05-05 13:33:00,67.6,52.3,29.94,West,270,7.0,11.0,58,0.00,,,0.00,meteohub,2013-05-05 20:33:00,
2013-05-05 13:38:00,67.3,51.4,29.94,West,270,8.0,10.0,57,0.00,,,0.00,meteohub,2013-05-05 20:38:00,
2013-05-05 13:43:00,67.1,51.8,29.94,WNW,293,11.0,11.0,58,0.00,,,0.00,meteohub,2013-05-05 20:43:00,
2013-05-05 13:48:00,67.3,52.0,29.94,West,270,9.0,11.0,58,0.00,,,0.00,meteohub,2013-05-05 20:48:00,
2013-05-05 13:53:00,67.1,52.3,29.94,NW,315,11.0,11.0,59,0.00,,,0.00,meteohub,2013-05-05 20:53:00,
2013-05-05 13:58:00,67.5,53.1,29.94,WNW,293,7.0,13.0,60,0.00,,,0.00,meteohub,2013-05-05 20:58:00,
2013-05-05 14:03:00,66.9,52.2,29.94,NW,315,8.0,13.0,59,0.00,,,0.00,meteohub,2013-05-05 21:03:00,
2013-05-05 14:08:00,66.2,52.3,29.94,NW,315,9.0,13.0,61,0.00,,,0.00,meteohub,2013-05-05 21:08:00,
2013-05-05 14:13:00,65.5,53.1,29.94,SW,225,8.0,14.0,64,0.00,,,0.00,meteohub,2013-05-05 21:13:00,
2013-05-05 14:18:00,65.5,52.2,29.94,SW,225,11.0,14.0,62,0.00,,,0.00,meteohub,2013-05-05 21:18:00,
2013-05-05 14:23:00,65.5,53.4,29.94,West,270,12.0,14.0,65,0.00,,,0.00,meteohub,2013-05-05 21:23:00,
2013-05-05 14:28:00,66.2,53.6,29.94,NW,315,8.0,14.0,64,0.00,,,0.00,meteohub,2013-05-05 21:28:00,
2013-05-05 14:33:00,66.2,53.6,29.94,SW,225,14.0,14.0,64,0.00,,,0.00,meteohub,2013-05-05 21:33:00,
2013-05-05 14:38:00,66.2,52.3,29.94,West,270,8.0,14.0,61,0.00,,,0.00,meteohub,2013-05-05 21:38:00,
2013-05-05 14:43:00,66.9,53.1,29.94,SW,225,8.0,14.0,61,0.00,,,0.00,meteohub,2013-05-05 21:43:00,
2013-05-05 14:48:00,66.9,53.4,29.94,WNW,293,8.0,14.0,62,0.00,,,0.00,meteohub,2013-05-05 21:48:00,
2013-05-05 14:53:00,66.0,52.2,29.95,West,270,7.0,11.0,61,0.00,,,0.00,meteohub,2013-05-05 21:53:00,
2013-05-05 14:58:00,65.8,52.9,29.95,West,270,13.0,13.0,63,0.00,,,0.00,meteohub,2013-05-05 21:58:00,
2013-05-05 15:03:00,65.5,53.4,29.95,West,270,16.0,16.0,65,0.00,,,0.00,meteohub,2013-05-05 22:03:00,
2013-05-05 15:08:00,65.7,54.0,29.94,NW,315,11.0,16.0,66,0.00,,,0.00,meteohub,2013-05-05 22:08:00,
2013-05-05 15:13:00,65.7,54.0,29.94,West,270,10.0,16.0,66,0.00,,,0.00,meteohub,2013-05-05 22:13:00,
2013-05-05 15:18:00,65.5,53.4,29.94,WNW,293,14.0,16.0,65,0.00,,,0.00,meteohub,2013-05-05 22:18:00,
2013-05-05 15:23:00,65.3,54.1,29.94,West,270,11.0,15.0,67,0.00,,,0.00,meteohub,2013-05-05 22:23:00,
2013-05-05 15:28:00,65.5,54.3,29.94,NW,315,11.0,15.0,67,0.00,,,0.00,meteohub,2013-05-05 22:28:00,
2013-05-05 15:33:00,65.3,53.6,29.94,West,270,8.0,15.0,66,0.00,,,0.00,meteohub,2013-05-05 22:33:00,
2013-05-05 15:38:00,65.1,54.0,29.94,NW,315,12.0,14.0,67,0.00,,,0.00,meteohub,2013-05-05 22:38:00,
2013-05-05 15:43:00,64.9,53.8,29.94,West,270,9.0,14.0,67,0.00,,,0.00,meteohub,2013-05-05 22:43:00,
2013-05-05 15:48:00,64.8,54.0,29.94,West,270,10.0,14.0,68,0.00,,,0.00,meteohub,2013-05-05 22:48:00,
2013-05-05 15:53:00,64.6,54.1,29.94,West,270,14.0,15.0,69,0.00,,,0.00,meteohub,2013-05-05 22:53:00,
2013-05-05 15:58:00,64.4,54.0,29.93,NW,315,8.0,15.0,69,0.00,,,0.00,meteohub,2013-05-05 22:58:00,
2013-05-05 16:03:00,64.8,54.3,29.93,West,270,9.0,15.0,69,0.00,,,0.00,meteohub,2013-05-05 23:03:00,
2013-05-05 16:08:00,64.9,53.8,29.93,WNW,293,7.0,14.0,67,0.00,,,0.00,meteohub,2013-05-05 23:08:00,
2013-05-05 16:13:00,64.9,53.2,29.93,WNW,293,9.0,12.0,66,0.00,,,0.00,meteohub,2013-05-05 23:13:00,
2013-05-05 16:18:00,65.3,53.6,29.93,WNW,293,8.0,12.0,66,0.00,,,0.00,meteohub,2013-05-05 23:18:00,
2013-05-05 16:23:00,65.3,54.5,29.93,NW,315,9.0,11.0,68,0.00,,,0.00,meteohub,2013-05-05 23:23:00,
2013-05-05 16:28:00,65.3,54.1,29.93,NW,315,14.0,14.0,67,0.00,,,0.00,meteohub,2013-05-05 23:28:00,
2013-05-05 16:34:00,65.1,54.0,29.94,South,180,8.0,14.0,67,0.00,,,0.00,meteohub,2013-05-05 23:34:00,
2013-05-05 16:39:00,65.1,53.1,29.93,West,270,11.0,14.0,65,0.00,,,0.00,meteohub,2013-05-05 23:39:00,
2013-05-05 16:44:00,65.7,54.0,29.94,West,270,13.0,14.0,66,0.00,,,0.00,meteohub,2013-05-05 23:44:00,
2013-05-05 16:49:00,65.5,53.1,29.94,NW,315,12.0,13.0,64,0.00,,,0.00,meteohub,2013-05-05 23:49:00,
2013-05-05 16:54:00,65.1,54.0,29.94,West,270,15.0,15.0,67,0.00,,,0.00,meteohub,2013-05-05 23:54:00,
2013-05-05 16:59:00,64.6,53.4,29.94,West,270,8.0,13.0,67,0.00,,,0.00,meteohub,2013-05-05 23:59:00,
2013-05-05 17:04:00,64.8,54.3,29.94,West,270,4.0,15.0,69,0.00,,,0.00,meteohub,2013-05-06 00:04:00,
2013-05-05 17:09:00,64.6,54.1,29.94,NW,315,8.0,15.0,69,0.00,,,0.00,meteohub,2013-05-06 00:09:00,
2013-05-05 17:14:00,64.9,54.5,29.94,South,180,7.0,11.0,69,0.00,,,0.00,meteohub,2013-05-06 00:14:00,
2013-05-05 17:19:00,65.3,54.5,29.94,SSE,158,8.0,11.0,68,0.00,,,0.00,meteohub,2013-05-06 00:19:00,
2013-05-05 17:24:00,65.1,54.7,29.94,West,270,11.0,11.0,69,0.00,,,0.00,meteohub,2013-05-06 00:24:00,
2013-05-05 17:29:00,64.9,53.8,29.94,West,270,11.0,11.0,67,0.00,,,0.00,meteohub,2013-05-06 00:29:00,
2013-05-05 17:34:00,64.6,53.8,29.94,West,270,11.0,17.0,68,0.00,,,0.00,meteohub,2013-05-06 00:34:00,
2013-05-05 17:39:00,64.6,54.5,29.93,West,270,6.0,17.0,70,0.00,,,0.00,meteohub,2013-05-06 00:39:00,
2013-05-05 17:44:00,64.9,54.9,29.93,West,270,11.0,17.0,70,0.00,,,0.00,meteohub,2013-05-06 00:44:00,
2013-05-05 17:49:00,64.8,54.7,29.93,NW,315,4.0,12.0,70,0.00,,,0.00,meteohub,2013-05-06 00:49:00,
2013-05-05 17:54:00,64.6,55.0,29.93,West,270,8.0,11.0,71,0.00,,,0.00,meteohub,2013-05-06 00:54:00,
2013-05-05 17:59:00,64.6,54.5,29.93,West,270,4.0,12.0,70,0.00,,,0.00,meteohub,2013-05-06 00:59:00,
2013-05-05 18:04:00,64.4,54.0,29.93,SW,225,12.0,12.0,69,0.00,,,0.00,meteohub,2013-05-06 01:04:00,
2013-05-05 18:09:00,64.0,53.6,29.93,West,270,11.0,12.0,69,0.00,,,0.00,meteohub,2013-05-06 01:09:00,
2013-05-05 18:14:00,63.9,54.7,29.93,West,270,9.0,12.0,72,0.00,,,0.00,meteohub,2013-05-06 01:14:00,
2013-05-05 18:19:00,63.3,54.5,29.94,West,270,8.0,12.0,73,0.00,,,0.00,meteohub,2013-05-06 01:19:00,
2013-05-05 18:24:00,63.1,55.8,29.93,West,270,5.0,12.0,77,0.00,,,0.00,meteohub,2013-05-06 01:24:00,
2013-05-05 18:29:00,63.0,55.2,29.94,West,270,8.0,12.0,76,0.00,,,0.00,meteohub,2013-05-06 01:29:00,
2013-05-05 18:34:00,62.8,55.0,29.93,NW,315,8.0,11.0,76,0.00,,,0.00,meteohub,2013-05-06 01:34:00,
2013-05-05 18:39:00,62.8,54.7,29.93,West,270,11.0,12.0,75,0.00,,,0.00,meteohub,2013-05-06 01:39:00,
2013-05-05 18:44:00,62.6,54.1,29.94,West,270,11.0,12.0,74,0.00,,,0.00,meteohub,2013-05-06 01:44:00,
2013-05-05 18:49:00,62.4,54.0,29.94,West,270,8.0,12.0,74,0.00,,,0.00,meteohub,2013-05-06 01:49:00,
2013-05-05 18:54:00,62.2,53.8,29.94,West,270,14.0,14.0,74,0.00,,,0.00,meteohub,2013-05-06 01:54:00,
2013-05-05 18:59:00,62.1,54.0,29.94,West,270,10.0,12.0,75,0.00,,,0.00,meteohub,2013-05-06 01:59:00,
2013-05-05 19:04:00,62.1,52.9,29.94,NW,315,6.0,15.0,72,0.00,,,0.00,meteohub,2013-05-06 02:04:00,
2013-05-05 19:09:00,62.1,53.2,29.94,West,270,11.0,15.0,73,0.00,,,0.00,meteohub,2013-05-06 02:09:00,
2013-05-05 19:14:00,61.9,53.4,29.94,West,270,4.0,13.0,74,0.00,,,0.00,meteohub,2013-05-06 02:14:00,
2013-05-05 19:19:00,61.9,53.8,29.94,SSW,203,4.0,11.0,75,0.00,,,0.00,meteohub,2013-05-06 02:19:00,
2013-05-05 19:24:00,61.9,54.7,29.94,West,270,8.0,11.0,77,0.00,,,0.00,meteohub,2013-05-06 02:24:00,
2013-05-05 19:29:00,61.7,54.5,29.94,South,180,5.0,9.0,77,0.00,,,0.00,meteohub,2013-05-06 02:29:00,
2013-05-05 19:34:00,61.7,54.5,29.94,WSW,248,4.0,8.0,77,0.00,,,0.00,meteohub,2013-05-06 02:34:00,
2013-05-05 19:39:00,61.7,54.9,29.94,West,270,8.0,8.0,78,0.00,,,0.00,meteohub,2013-05-06 02:39:00,
2013-05-05 19:44:00,61.5,54.7,29.94,West,270,7.0,8.0,78,0.00,,,0.00,meteohub,2013-05-06 02:44:00,
2013-05-05 19:49:00,61.7,55.0,29.94,West,270,8.0,9.0,79,0.00,,,0.00,meteohub,2013-05-06 02:49:00,
2013-05-05 19:54:00,61.7,55.0,29.94,West,270,4.0,9.0,79,0.00,,,0.00,meteohub,2013-05-06 02:54:00,
2013-05-05 19:59:00,61.7,55.0,29.94,SW,225,8.0,8.0,79,0.00,,,0.00,meteohub,2013-05-06 02:59:00,
2013-05-05 20:04:00,61.5,54.9,29.95,West,270,6.0,8.0,79,0.00,,,0.00,meteohub,2013-05-06 03:04:00,
2013-05-05 20:09:00,61.5,55.2,29.95,SSE,158,6.0,8.0,80,0.00,,,0.00,meteohub,2013-05-06 03:09:00,
2013-05-05 20:14:00,61.5,55.2,29.95,West,270,4.0,8.0,80,0.00,,,0.00,meteohub,2013-05-06 03:14:00,
2013-05-05 20:19:00,61.3,55.0,29.95,West,270,6.0,8.0,80,0.00,,,0.00,meteohub,2013-05-06 03:19:00,
2013-05-05 20:24:00,61.3,54.9,29.95,SW,225,8.0,8.0,79,0.00,,,0.00,meteohub,2013-05-06 03:24:00,
2013-05-05 20:29:00,61.3,54.9,29.96,SW,225,2.0,8.0,79,0.00,,,0.00,meteohub,2013-05-06 03:29:00,
2013-05-05 20:35:00,61.3,54.9,29.95,West,270,2.0,8.0,79,0.00,,,0.00,meteohub,2013-05-06 03:35:00,
2013-05-05 20:40:00,61.3,55.0,29.95,South,180,5.0,7.0,80,0.00,,,0.00,meteohub,2013-05-06 03:40:00,
2013-05-05 20:46:00,61.3,55.0,29.95,South,180,5.0,7.0,80,0.00,,,0.00,meteohub,2013-05-06 03:46:00,
2013-05-05 20:51:00,61.3,55.0,29.95,West,270,3.0,7.0,80,0.00,,,0.00,meteohub,2013-05-06 03:51:00,
2013-05-05 20:56:00,61.3,55.0,29.95,SW,225,6.0,6.0,80,0.00,,,0.00,meteohub,2013-05-06 03:56:00,
2013-05-05 21:01:00,61.3,55.0,29.96,SE,135,3.0,7.0,80,0.00,,,0.00,meteohub,2013-05-06 04:01:00,
2013-05-05 21:02:00,61.3,55.0,29.95,South,180,2.0,7.0,80,0.00,,,0.00,meteohub,2013-05-06 04:02:00,
2013-05-05 21:07:00,61.2,55.6,29.95,SW,225,5.0,7.0,82,0.00,,,0.00,meteohub,2013-05-06 04:07:00,
2013-05-05 21:12:00,61.0,55.8,29.96,SW,225,4.0,7.0,83,0.00,,,0.00,meteohub,2013-05-06 04:12:00,
2013-05-05 21:17:00,60.8,55.9,29.96,WSW,248,2.0,7.0,84,0.00,,,0.00,meteohub,2013-05-06 04:17:00,
2013-05-05 21:22:00,60.4,56.3,29.96,West,270,4.0,6.0,86,0.00,,,0.00,meteohub,2013-05-06 04:22:00,
2013-05-05 21:27:00,60.1,56.8,29.96,NW,315,3.0,5.0,89,0.00,,,0.00,meteohub,2013-05-06 04:27:00,
2013-05-05 21:32:00,59.9,57.6,29.96,West,270,5.0,5.0,92,0.00,,,0.00,meteohub,2013-05-06 04:32:00,
2013-05-05 21:37:00,59.5,57.2,29.96,West,270,2.0,5.0,92,0.01,,,0.01,meteohub,2013-05-06 04:37:00,
2013-05-05 21:42:00,59.2,57.2,29.96,SW,225,2.0,5.0,93,0.01,,,0.01,meteohub,2013-05-06 04:42:00,
2013-05-05 21:47:00,59.2,57.4,29.96,SSE,158,5.0,5.0,94,0.01,,,0.01,meteohub,2013-05-06 04:47:00,
2013-05-05 21:52:00,59.2,57.7,29.96,SSE,158,2.0,5.0,95,0.01,,,0.01,meteohub,2013-05-06 04:52:00,
2013-05-05 21:57:00,59.2,57.7,29.96,South,180,3.0,5.0,95,0.01,,,0.01,meteohub,2013-05-06 04:57:00,
2013-05-05 22:02:00,59.0,57.9,29.96,SW,225,4.0,5.0,96,0.02,,,0.02,meteohub,2013-05-06 05:02:00,
2013-05-05 22:07:00,58.8,57.7,29.96,SSW,203,4.0,5.0,96,0.02,,,0.02,meteohub,2013-05-06 05:07:00,
2013-05-05 22:12:00,58.8,57.9,29.96,SE,135,2.0,5.0,97,0.02,,,0.02,meteohub,2013-05-06 05:12:00,
2013-05-05 22:17:00,58.8,57.9,29.96,South,180,4.0,5.0,97,0.02,,,0.02,meteohub,2013-05-06 05:17:00,
2013-05-05 22:22:00,58.8,58.3,29.96,SSE,158,4.0,5.0,98,0.02,,,0.02,meteohub,2013-05-06 05:22:00,
2013-05-05 22:27:00,58.8,58.3,29.96,SSE,158,5.0,5.0,98,0.02,,,0.02,meteohub,2013-05-06 05:27:00,
2013-05-05 22:32:00,59.0,58.5,29.97,SW,225,7.0,7.0,98,0.02,,,0.02,meteohub,2013-05-06 05:32:00,
2013-05-05 22:37:00,59.0,58.5,29.96,South,180,4.0,7.0,98,0.01,,,0.02,meteohub,2013-05-06 05:37:00,
2013-05-05 22:42:00,59.0,58.1,29.96,SE,135,5.0,7.0,97,0.01,,,0.02,meteohub,2013-05-06 05:42:00,
2013-05-05 22:47:00,59.0,57.9,29.96,South,180,2.0,7.0,96,0.01,,,0.02,meteohub,2013-05-06 05:47:00,
2013-05-05 22:52:00,59.0,57.9,29.96,SSW,203,2.0,7.0,96,0.01,,,0.02,meteohub,2013-05-06 05:52:00,
2013-05-05 22:57:00,59.2,58.1,29.96,West,270,2.0,7.0,96,0.01,,,0.02,meteohub,2013-05-06 05:57:00,
2013-05-05 23:02:00,59.0,57.9,29.96,SW,225,2.0,5.0,96,0.00,,,0.02,meteohub,2013-05-06 06:02:00,
2013-05-05 23:07:00,59.0,57.9,29.96,SW,225,1.0,3.0,96,0.00,,,0.02,meteohub,2013-05-06 06:07:00,
2013-05-05 23:12:00,59.2,58.1,29.96,SW,225,1.0,2.0,96,0.00,,,0.02,meteohub,2013-05-06 06:12:00,
2013-05-05 23:17:00,59.2,58.1,29.96,SW,225,0.0,2.0,96,0.00,,,0.02,meteohub,2013-05-06 06:17:00,
2013-05-05 23:22:00,59.2,58.1,29.96,SW,225,1.0,2.0,96,0.00,,,0.02,meteohub,2013-05-06 06:22:00,
2013-05-05 23:27:00,59.4,58.3,29.96,SW,225,2.0,3.0,96,0.00,,,0.02,meteohub,2013-05-06 06:27:00,
2013-05-05 23:32:00,59.5,58.5,29.96,West,270,5.0,5.0,96,0.00,,,0.02,meteohub,2013-05-06 06:32:00,
2013-05-05 23:37:00,59.5,57.2,29.97,WSW,248,2.0,5.0,92,0.00,,,0.02,meteohub,2013-05-06 06:37:00,
2013-05-05 23:42:00,59.7,56.8,29.96,WSW,248,5.0,5.0,90,0.00,,,0.02,meteohub,2013-05-06 06:42:00,
2013-05-05 23:47:00,59.7,56.8,29.96,West,270,4.0,6.0,90,0.00,,,0.02,meteohub,2013-05-06 06:47:00,
2013-05-05 23:52:00,59.7,56.8,29.96,West,270,1.0,6.0,90,0.00,,,0.02,meteohub,2013-05-06 06:52:00,
2013-05-05 23:57:00,59.7,57.0,29.96,West,270,4.0,6.0,91,0.00,,,0.02,meteohub,2013-05-06 06:57:00,